TimeCDT,TemperatureF,Dew PointF,Humidity,Sea Level PressureIn,VisibilityMPH,Wind Direction,Wind SpeedMPH,Gust SpeedMPH,PrecipitationIn,Events,Conditions,WindDirDegrees,DateUTC
12:09 AM,29.7,26.1,86,30.31,10.0,Calm,Calm,-,N/A,,Clear,0,2012-10-28 05:09:00
1:08 AM,29.5,25.9,86,30.31,10.0,SE,3.5,-,N/A,,Overcast,130,2012-10-28 06:08:00
1:29 AM,30.6,26.8,86,30.31,10.0,SE,3.5,-,N/A,,Overcast,130,2012-10-28 06:29:00
1:49 AM,30.6,27.1,87,30.31,10.0,SE,3.5,-,N/A,,Mostly Cloudy,130,2012-10-28 06:49:00
2:09 AM,29.3,26.2,88,30.31,10.0,SE,3.5,-,N/A,,Overcast,130,2012-10-28 07:09:00
2:28 AM,29.3,26.1,88,30.30,10.0,SE,3.5,-,N/A,,Overcast,130,2012-10-28 07:28:00
2:48 AM,29.3,26.2,88,30.30,10.0,SE,3.5,-,N/A,,Overcast,130,2012-10-28 07:48:00
3:08 AM,29.3,26.4,89,30.30,10.0,Calm,Calm,-,N/A,,Mostly Cloudy,0,2012-10-28 08:08:00
3:17 AM,29.3,26.4,89,30.30,10.0,Calm,Calm,-,N/A,,Mostly Cloudy,0,2012-10-28 08:17:00
3:50 AM,30.2,26.6,86,30.29,10.0,Calm,Calm,-,N/A,,Mostly Cloudy,0,2012-10-28 08:50:00
4:10 AM,28.4,24.8,86,30.29,10.0,Calm,Calm,-,N/A,,Scattered Clouds,0,2012-10-28 09:10:00
4:30 AM,28.4,24.8,86,30.29,10.0,SE,3.5,-,N/A,,Scattered Clouds,140,2012-10-28 09:30:00
4:40 AM,29.3,25.7,86,30.29,10.0,SE,3.5,-,N/A,,Mostly Cloudy,140,2012-10-28 09:40:00
4:48 AM,29.3,25.7,86,30.29,10.0,SE,3.5,-,N/A,,Mostly Cloudy,140,2012-10-28 09:48:00
5:09 AM,29.8,26.1,86,30.29,10.0,Calm,Calm,-,N/A,,Overcast,0,2012-10-28 10:09:00
5:29 AM,30.9,26.8,85,30.29,10.0,SE,3.5,-,N/A,,Overcast,140,2012-10-28 10:29:00
5:49 AM,31.8,27.5,84,30.29,10.0,Calm,Calm,-,N/A,,Overcast,0,2012-10-28 10:49:00
6:08 AM,31.8,27.3,83,30.29,10.0,Calm,Calm,-,N/A,,Overcast,0,2012-10-28 11:08:00
6:29 AM,31.8,27.7,85,30.29,10.0,SE,3.5,-,N/A,,Overcast,130,2012-10-28 11:29:00
6:49 AM,31.8,28.0,86,30.30,10.0,Calm,Calm,-,N/A,,Overcast,0,2012-10-28 11:49:00
7:09 AM,31.8,27.5,84,30.30,10.0,Calm,Calm,-,N/A,,Overcast,0,2012-10-28 12:09:00
7:29 AM,34.0,30.2,86,30.30,10.0,Calm,Calm,-,N/A,,Overcast,0,2012-10-28 12:29:00
7:49 AM,34.0,30.2,86,30.30,10.0,Calm,Calm,-,N/A,,Overcast,0,2012-10-28 12:49:00
8:09 AM,34.0,30.2,86,30.31,10.0,Calm,Calm,-,N/A,,Overcast,0,2012-10-28 13:09:00
8:29 AM,34.0,30.0,85,30.31,10.0,SSE,3.5,-,N/A,,Overcast,160,2012-10-28 13:29:00
8:49 AM,34.0,30.0,85,30.31,10.0,SSE,3.5,-,N/A,,Overcast,150,2012-10-28 13:49:00
9:09 AM,34.0,30.0,85,30.31,10.0,Calm,Calm,-,N/A,,Overcast,0,2012-10-28 14:09:00
9:38 AM,34.0,29.8,85,30.31,10.0,SSE,3.5,-,N/A,,Overcast,160,2012-10-28 14:38:00
10:10 AM,33.8,30.2,87,30.31,10.0,SE,4.6,-,N/A,,Overcast,140,2012-10-28 15:10:00
10:30 AM,33.8,30.2,87,30.31,10.0,SE,5.8,-,N/A,,Overcast,140,2012-10-28 15:30:00
10:50 AM,35.6,30.2,81,30.31,10.0,SE,4.6,-,N/A,,Overcast,140,2012-10-28 15:50:00
11:10 AM,35.6,30.2,81,30.31,10.0,SSE,4.6,-,N/A,,Overcast,150,2012-10-28 16:10:00
11:30 AM,37.4,30.2,75,30.30,10.0,SSE,4.6,-,N/A,,Overcast,150,2012-10-28 16:30:00
11:50 AM,39.2,30.2,70,30.30,10.0,SSE,5.8,-,N/A,,Overcast,160,2012-10-28 16:50:00
12:10 PM,39.2,30.2,70,30.30,10.0,SE,9.2,-,N/A,,Overcast,140,2012-10-28 17:10:00
12:30 PM,39.2,30.2,70,30.29,10.0,South,8.1,-,N/A,,Overcast,170,2012-10-28 17:30:00
12:50 PM,41.0,32.0,70,30.28,10.0,SSE,9.2,-,N/A,,Overcast,160,2012-10-28 17:50:00
1:10 PM,42.8,30.2,61,30.28,10.0,SSE,9.2,16.1,N/A,,Scattered Clouds,160,2012-10-28 18:10:00
1:30 PM,42.8,30.2,61,30.27,10.0,South,11.5,17.3,N/A,,Mostly Cloudy,170,2012-10-28 18:30:00
1:50 PM,42.8,32.0,66,30.27,10.0,SSE,8.1,-,N/A,,Overcast,160,2012-10-28 18:50:00
2:10 PM,44.6,32.0,61,30.26,10.0,SSE,11.5,-,N/A,,Overcast,150,2012-10-28 19:10:00
2:30 PM,44.6,32.0,61,30.26,10.0,SSE,10.4,-,N/A,,Overcast,160,2012-10-28 19:30:00
2:50 PM,46.4,32.0,57,30.25,10.0,South,9.2,-,N/A,,Mostly Cloudy,170,2012-10-28 19:50:00
3:10 PM,46.4,33.8,62,30.25,10.0,South,9.2,-,N/A,,Scattered Clouds,170,2012-10-28 20:10:00
3:30 PM,46.4,33.8,62,30.25,10.0,South,6.9,-,N/A,,Clear,170,2012-10-28 20:30:00
3:49 PM,46.0,33.6,62,30.25,10.0,South,8.1,-,N/A,,Clear,170,2012-10-28 20:49:00
4:09 PM,46.6,34.2,62,30.24,10.0,SE,10.4,-,N/A,,Scattered Clouds,140,2012-10-28 21:09:00
4:28 PM,46.6,33.8,61,30.24,10.0,SE,10.4,-,N/A,,Scattered Clouds,140,2012-10-28 21:28:00
4:49 PM,46.6,34.0,62,30.24,10.0,SE,8.1,-,N/A,,Mostly Cloudy,140,2012-10-28 21:49:00
5:06 PM,46.6,33.6,61,30.24,10.0,SE,6.9,-,N/A,,Overcast,140,2012-10-28 22:06:00
5:28 PM,46.6,33.6,61,30.24,10.0,SE,10.4,-,N/A,,Mostly Cloudy,140,2012-10-28 22:28:00
5:49 PM,43.3,32.2,65,30.24,10.0,SE,8.1,-,N/A,,Mostly Cloudy,130,2012-10-28 22:49:00
6:08 PM,41.5,32.0,69,30.25,10.0,SE,5.8,-,N/A,,Mostly Cloudy,130,2012-10-28 23:08:00
6:29 PM,40.3,32.2,73,30.25,10.0,ESE,5.8,-,N/A,,Mostly Cloudy,120,2012-10-28 23:29:00
6:49 PM,40.3,32.2,73,30.25,10.0,ESE,5.8,-,N/A,,Overcast,110,2012-10-28 23:49:00
7:09 PM,39.2,32.0,75,30.25,10.0,ESE,6.9,-,N/A,,Mostly Cloudy,120,2012-10-29 00:09:00
7:28 PM,39.2,32.7,78,30.25,10.0,ESE,4.6,-,N/A,,Mostly Cloudy,120,2012-10-29 00:28:00
7:48 PM,39.7,32.2,74,30.26,10.0,ESE,5.8,-,N/A,,Overcast,110,2012-10-29 00:48:00
8:08 PM,40.3,32.2,73,30.25,10.0,East,6.9,-,N/A,,Overcast,100,2012-10-29 01:08:00
8:29 PM,40.3,32.0,72,30.25,10.0,East,6.9,-,N/A,,Overcast,100,2012-10-29 01:29:00
8:49 PM,40.3,32.0,72,30.26,10.0,East,6.9,-,N/A,,Overcast,100,2012-10-29 01:49:00
9:09 PM,39.9,32.0,73,30.26,10.0,East,6.9,-,N/A,,Overcast,100,2012-10-29 02:09:00
9:28 PM,39.2,31.6,74,30.26,10.0,ESE,6.9,-,N/A,,Overcast,120,2012-10-29 02:28:00
9:49 PM,39.2,32.0,75,30.26,10.0,ESE,8.1,-,N/A,,Mostly Cloudy,120,2012-10-29 02:49:00
10:08 PM,36.5,30.6,79,30.26,10.0,ESE,8.1,-,N/A,,Scattered Clouds,120,2012-10-29 03:08:00
10:29 PM,35.4,29.8,80,30.26,10.0,ESE,6.9,-,N/A,,Clear,120,2012-10-29 03:29:00
10:48 PM,34.0,28.9,82,30.26,10.0,ESE,8.1,-,N/A,,Clear,110,2012-10-29 03:48:00
11:09 PM,34.0,29.1,82,30.27,10.0,ESE,6.9,-,N/A,,Clear,120,2012-10-29 04:09:00
11:48 PM,34.2,29.5,83,30.27,10.0,SE,6.9,-,N/A,,Overcast,130,2012-10-29 04:48:00